Time;durP1;ratioP1;P1;durP2;ratioP2;P2;SDS_P1;SDS_P2;PMS_P1;PMS_P2;Temp;Humidity;BMP_temperature;BMP_pressure;BME280_temperature;BME280_humidity;BME280_pressure;Samples;Min_cycle;Max_cycle;Signal;HPM_P1;HPM_P2
2021/05/27 00:00:59;;;;;;;7.70;7.03;;;;;;;28.91;65.05;100825.91;5077924;27;69890;-35
2021/05/27 00:03:29;;;;;;;7.43;6.97;;;;;;;28.95;65.62;100826.34;5065789;28;66071;-35
2021/05/27 00:06:00;;;;;;;7.57;6.60;;;;;;;28.89;65.40;100819.06;5077120;27;70051;-34
2021/05/27 00:08:31;;;;;;;7.70;6.97;;;;;;;28.83;65.45;100809.94;5068379;27;67716;-35
2021/05/27 00:11:14;;;;;;;10.68;7.68;;;;;;;29.04;66.51;100841.31;5077157;28;70545;-34
2021/05/27 00:13:45;;;;;;;11.30;9.07;;;;;;;29.01;67.73;100830.09;5073849;27;66051;-35
2021/05/27 00:16:17;;;;;;;24.58;10.65;;;;;;;29.11;67.62;100835.91;5075427;28;69809;-35
2021/05/27 00:18:52;;;;;;;27.98;11.65;;;;;;;29.14;68.01;100844.44;5074162;27;65111;-35
2021/05/27 00:21:23;;;;;;;44.97;13.90;;;;;;;29.18;67.97;100844.84;5069953;28;70001;-36
2021/05/27 00:23:53;;;;;;;23.42;13.82;;;;;;;29.22;68.94;100850.66;5072620;27;65827;-34
2021/05/27 00:26:24;;;;;;;21.60;17.00;;;;;;;29.24;70.32;100848.59;5076255;27;69361;-35
2021/05/27 00:28:56;;;;;;;38.38;18.77;;;;;;;29.23;70.58;100858.56;5073094;28;66101;-33
2021/05/27 00:31:27;;;;;;;40.55;21.58;;;;;;;29.25;70.67;100859.16;5075087;27;68896;-34
2021/05/27 00:33:57;;;;;;;40.72;23.23;;;;;;;29.25;70.63;100867.25;5077012;27;66326;-36
2021/05/27 00:36:28;;;;;;;37.20;21.83;;;;;;;29.18;71.04;100844.84;5077210;27;69052;-35
2021/05/27 00:38:59;;;;;;;36.08;20.35;;;;;;;29.27;70.95;100859.78;5078728;27;65981;-35
2021/05/27 00:41:30;;;;;;;43.90;19.73;;;;;;;29.19;70.39;100841.09;5072703;27;69833;-35
2021/05/27 00:44:01;;;;;;;37.83;19.52;;;;;;;29.26;71.25;100857.31;5074967;28;65817;-35
2021/05/27 00:46:33;;;;;;;62.40;19.48;;;;;;;29.24;70.50;100854.81;5066723;27;69753;-36
2021/05/27 00:49:03;;;;;;;33.88;18.08;;;;;;;29.34;70.79;100860.63;5072069;27;66019;-36
2021/05/27 00:51:34;;;;;;;40.55;18.13;;;;;;;29.39;70.29;100852.72;5075996;27;69285;-36
2021/05/27 00:54:05;;;;;;;39.70;17.50;;;;;;;29.38;70.21;100844.81;5080664;27;66836;-36
2021/05/27 00:56:37;;;;;;;23.98;17.20;;;;;;;29.50;70.11;100858.50;5067540;28;70012;-36
2021/05/27 00:59:08;;;;;;;30.57;16.77;;;;;;;29.55;70.23;100864.09;5078557;27;65168;-36
2021/05/27 01:01:39;;;;;;;24.33;16.20;;;;;;;29.59;70.33;100859.94;5079961;27;70597;-36
2021/05/27 01:04:13;;;;;;;29.30;16.63;;;;;;;29.66;69.71;100857.25;5075571;28;65292;-36
2021/05/27 01:06:45;;;;;;;27.17;16.00;;;;;;;29.67;69.87;100859.75;5072030;27;69309;-36
2021/05/27 01:09:18;;;;;;;23.08;15.20;;;;;;;29.70;69.37;100858.47;5077365;27;65929;-36
2021/05/27 01:11:51;;;;;;;25.83;14.57;;;;;;;29.75;68.93;100854.09;5061577;28;69963;-36
2021/05/27 01:17:11;;;;;;;20.65;14.10;;;;;;;29.83;69.16;100863.84;5072483;27;69976;-36
2021/05/27 01:19:42;;;;;;;25.88;14.48;;;;;;;29.81;69.42;100855.09;5073654;28;67005;-36
2021/05/27 01:22:12;;;;;;;24.20;14.80;;;;;;;29.90;69.16;100858.44;5073699;27;69512;-36
2021/05/27 01:24:43;;;;;;;18.65;14.90;;;;;;;29.92;68.48;100846.34;5074541;27;65892;-36
2021/05/27 01:27:16;;;;;;;16.40;14.57;;;;;;;29.94;68.67;100854.22;5075082;27;69086;-36
2021/05/27 01:29:54;;;;;;;15.98;13.57;;;;;;;29.92;68.70;100856.31;5077248;27;64955;-36
2021/05/27 01:32:25;;;;;;;15.27;12.35;;;;;;;29.92;69.11;100853.59;5073516;27;69592;-36
2021/05/27 01:34:56;;;;;;;;;;;;;;;29.77;70.12;100870.94;5076639;27;65560;-36
2021/05/27 01:37:27;;;;;;;14.95;13.43;;;;;;;30.01;68.63;100865.88;5076004;27;70048;-36
2021/05/27 01:39:59;;;;;;;17.38;14.07;;;;;;;30.05;68.89;100865.19;5064178;28;66082;-36
2021/05/27 01:42:31;;;;;;;18.63;13.27;;;;;;;30.10;68.42;100867.28;5080342;27;69200;-36
2021/05/27 01:45:05;;;;;;;17.42;12.75;;;;;;;30.13;68.90;100874.94;5076716;27;65565;-36
2021/05/27 01:47:36;;;;;;;14.32;12.68;;;;;;;30.09;68.41;100857.50;5074910;28;69176;-36
2021/05/27 01:50:19;;;;;;;15.32;13.27;;;;;;;30.15;68.52;100872.88;5071238;27;66267;-37
2021/05/27 01:52:56;;;;;;;;;;;;;;;29.90;69.81;100871.94;5067068;28;70733;-38
2021/05/27 01:55:30;;;;;;;13.68;12.27;;;;;;;30.14;68.99;100865.78;5068867;27;66171;-36
2021/05/27 01:58:02;;;;;;;14.20;12.60;;;;;;;30.20;68.72;100874.91;5065428;28;70182;-38
2021/05/27 02:00:33;;;;;;;13.32;12.07;;;;;;;30.21;68.77;100869.28;5069213;28;66144;-36
2021/05/27 02:03:05;;;;;;;13.95;12.20;;;;;;;30.13;68.34;100850.59;5062754;28;69709;-37
2021/05/27 02:05:38;;;;;;;13.40;12.25;;;;;;;30.29;68.64;100879.06;5070916;28;66620;-36
2021/05/27 02:08:10;;;;;;;11.93;11.02;;;;;;;30.32;68.07;100872.41;5068032;28;70069;-37
2021/05/27 02:10:47;;;;;;;13.05;11.82;;;;;;;30.35;68.11;100882.78;5064712;27;65863;-37
2021/05/27 02:13:19;;;;;;;17.45;11.63;;;;;;;30.35;68.18;100880.09;5068455;28;69955;-37
2021/05/27 02:15:53;;;;;;;12.55;11.30;;;;;;;30.36;68.63;100879.03;5063268;28;65398;-37
2021/05/27 02:18:23;;;;;;;;;;;;;;;30.12;69.23;100873.31;5068816;28;69868;-38
2021/05/27 02:20:54;;;;;;;13.05;10.38;;;;;;;30.38;68.33;100876.94;5068255;27;65797;-36
2021/05/27 02:23:29;;;;;;;12.50;10.52;;;;;;;30.42;68.36;100878.16;5069836;27;69298;-37
2021/05/27 02:26:08;;;;;;;12.43;11.23;;;;;;;30.45;68.29;100877.72;5066841;27;65937;-36
2021/05/27 02:28:49;;;;;;;12.35;11.25;;;;;;;30.48;68.22;100874.59;5066703;27;70078;-36
2021/05/27 02:31:23;;;;;;;13.30;10.82;;;;;;;30.49;68.17;100879.78;5072219;28;65755;-37
2021/05/27 02:33:56;;;;;;;11.13;10.23;;;;;;;30.30;67.90;100848.25;5068932;27;69963;-37
2021/05/27 02:36:31;;;;;;;12.77;11.52;;;;;;;30.55;68.63;100875.38;5069686;28;66817;-37
2021/05/27 02:39:09;;;;;;;11.80;10.80;;;;;;;30.58;67.98;100877.63;5070882;28;70102;-37
2021/05/27 02:42:01;;;;;;;12.48;11.27;;;;;;;30.63;68.13;100879.69;5071389;27;65009;-37
2021/05/27 02:44:33;;;;;;;11.15;10.32;;;;;;;30.65;67.77;100869.50;5074683;28;70040;-37
2021/05/27 02:47:04;;;;;;;11.70;10.60;;;;;;;30.56;67.91;100849.13;5068923;27;66043;-37
2021/05/27 02:49:35;;;;;;;11.05;10.10;;;;;;;30.68;68.30;100867.16;5069192;28;70492;-37
2021/05/27 02:52:07;;;;;;;10.50;9.80;;;;;;;30.62;68.01;100845.53;5071286;27;65631;-37
2021/05/27 02:54:37;;;;;;;12.15;11.05;;;;;;;30.75;68.61;100866.28;5072552;27;70960;-37
2021/05/27 02:57:12;;;;;;;9.77;9.23;;;;;;;30.74;68.19;100862.75;5067257;28;65297;-37
2021/05/27 02:59:46;;;;;;;10.10;9.50;;;;;;;30.78;67.85;100871.25;5068209;28;70307;-36
2021/05/27 03:02:21;;;;;;;10.68;9.70;;;;;;;30.75;68.36;100855.44;5059603;27;66930;-37
2021/05/27 03:04:54;;;;;;;10.50;9.63;;;;;;;30.81;68.54;100865.44;5065853;28;69805;-37
2021/05/27 03:07:26;;;;;;;10.70;9.90;;;;;;;30.80;68.09;100871.91;5050406;28;65548;-39
2021/05/27 03:10:01;;;;;;;11.55;10.57;;;;;;;30.82;68.53;100867.94;5071261;27;69623;-37
2021/05/27 03:12:34;;;;;;;9.77;9.00;;;;;;;30.78;67.91;100860.41;5072831;28;65396;-36
2021/05/27 03:15:07;;;;;;;10.18;9.38;;;;;;;30.69;67.85;100836.31;5069751;28;69982;-37
2021/05/27 03:17:41;;;;;;;10.07;9.23;;;;;;;30.84;67.98;100855.00;5072007;28;66138;-38
2021/05/27 03:20:16;;;;;;;10.80;9.88;;;;;;;30.87;67.93;100849.13;5064623;28;69828;-36
2021/05/27 03:22:47;;;;;;;10.10;9.27;;;;;;;30.92;68.40;100851.16;5065944;28;66120;-38
2021/05/27 03:25:21;;;;;;;9.77;8.98;;;;;;;30.93;68.07;100842.00;5060046;28;70642;-38
2021/05/27 03:27:52;;;;;;;10.15;9.43;;;;;;;30.92;67.84;100824.09;5061853;28;66001;-39
2021/05/27 03:30:26;;;;;;;9.57;8.80;;;;;;;31.04;67.81;100833.16;5058647;28;69907;-38
2021/05/27 03:32:57;;;;;;;9.18;8.50;;;;;;;31.06;68.03;100828.31;5074433;27;64935;-40
2021/05/27 03:35:31;;;;;;;10.13;9.43;;;;;;;31.05;67.50;100821.25;5062106;28;69414;-37
2021/05/27 03:38:05;;;;;;;9.95;9.13;;;;;;;31.09;67.44;100808.94;5065895;28;65554;-39
2021/05/27 03:40:39;;;;;;;9.20;8.60;;;;;;;31.16;67.80;100806.97;5069471;27;70119;-38
2021/05/27 03:43:10;;;;;;;9.75;9.02;;;;;;;31.19;67.42;100799.47;5069701;27;66100;-40
2021/05/27 03:45:51;;;;;;;9.47;8.67;;;;;;;31.26;67.17;100797.50;5075138;28;69480;-37
2021/05/27 03:48:24;;;;;;;8.98;8.32;;;;;;;31.29;67.31;100794.34;5057969;28;66557;-38
2021/05/27 03:50:58;;;;;;;8.75;8.15;;;;;;;31.29;67.42;100791.66;5070142;28;69022;-36
2021/05/27 03:53:35;;;;;;;8.75;8.15;;;;;;;31.28;67.50;100792.69;5069939;28;66215;-37
2021/05/27 03:56:09;;;;;;;8.57;7.97;;;;;;;31.28;67.78;100789.97;5076625;28;70071;-37
2021/05/27 04:01:44;;;;;;;8.88;8.02;;;;;;;31.24;67.91;100784.19;5068876;28;69871;-38
2021/05/27 04:07:37;;;;;;;9.35;8.73;;;;;;;31.01;67.84;100741.50;5070398;27;70368;-37
2021/05/27 04:10:10;;;;;;;9.63;8.05;;;;;;;31.27;68.04;100774.78;5068476;28;65319;-37
2021/05/27 04:12:46;;;;;;;8.80;8.25;;;;;;;31.23;67.85;100773.56;5073343;28;70245;-37
2021/05/27 04:15:33;;;;;;;9.07;8.45;;;;;;;30.80;67.11;100701.28;5073831;28;65943;-37
2021/05/27 04:18:10;;;;;;;8.90;8.13;;;;;;;31.21;67.77;100762.13;5066535;27;69967;-37
2021/05/27 04:20:45;;;;;;;8.73;8.13;;;;;;;31.29;67.53;100775.38;5074763;27;65307;-37
2021/05/27 04:23:41;;;;;;;8.52;7.63;;;;;;;31.14;67.26;100749.47;5073331;27;70055;-39
2021/05/27 04:26:16;;;;;;;9.02;8.23;;;;;;;31.25;67.99;100766.03;5073923;28;66196;-36
2021/05/27 04:28:48;;;;;;;8.52;7.93;;;;;;;31.24;67.62;100767.91;5071985;27;69089;-37
2021/05/27 04:31:19;;;;;;;7.75;7.25;;;;;;;31.23;67.30;100765.41;5075037;28;65633;-36
2021/05/27 04:33:55;;;;;;;8.00;7.60;;;;;;;31.03;67.36;100733.94;5070812;28;69107;-37
2021/05/27 04:36:27;;;;;;;8.27;7.40;;;;;;;31.24;67.94;100761.69;5063770;27;66751;-36
2021/05/27 04:38:59;;;;;;;7.68;7.18;;;;;;;31.22;67.28;100769.19;5066200;27;69445;-37
2021/05/27 04:41:33;;;;;;;8.27;7.78;;;;;;;31.16;67.49;100752.78;5075639;27;66450;-36
2021/05/27 04:44:05;;;;;;;7.72;7.22;;;;;;;31.21;67.73;100765.66;5066653;28;69931;-37
2021/05/27 04:46:35;;;;;;;7.80;7.30;;;;;;;31.22;67.89;100769.19;5076424;28;65123;-37
2021/05/27 04:49:07;;;;;;;8.97;7.50;;;;;;;31.20;68.00;100771.28;5068058;28;69396;-36
2021/05/27 04:51:44;;;;;;;8.10;7.53;;;;;;;31.21;67.42;100757.53;5065775;27;64962;-37
2021/05/27 04:54:22;;;;;;;7.50;7.00;;;;;;;31.21;67.43;100764.84;5064739;28;69136;-37
2021/05/27 04:56:56;;;;;;;9.57;7.40;;;;;;;31.21;67.76;100762.13;5070677;28;65905;-37
2021/05/27 04:59:30;;;;;;;9.02;8.40;;;;;;;30.84;67.37;100694.38;5068368;28;70118;-36
2021/05/27 05:02:00;;;;;;;;;;;;;;;30.92;68.46;100759.06;5068644;27;65283;-37
2021/05/27 05:04:33;;;;;;;8.18;7.65;;;;;;;31.12;68.23;100748.88;5073046;27;70317;-36
2021/05/27 05:07:06;;;;;;;8.68;8.13;;;;;;;31.07;67.50;100734.34;5073418;27;65921;-37
2021/05/27 05:09:45;;;;;;;8.25;7.70;;;;;;;31.14;67.52;100735.91;5073768;27;69909;-37
2021/05/27 05:12:19;;;;;;;7.57;7.13;;;;;;;31.14;67.43;100735.09;5075676;27;66245;-36
2021/05/27 05:14:54;;;;;;;7.45;6.95;;;;;;;31.12;68.04;100738.03;5069851;27;70066;-37
2021/05/27 05:17:26;;;;;;;8.85;7.57;;;;;;;31.12;67.48;100742.59;5072669;28;65698;-36
2021/05/27 05:20:05;;;;;;;8.30;7.60;;;;;;;31.10;68.02;100767.22;5067194;28;69857;-36
2021/05/27 05:22:36;;;;;;;7.78;7.28;;;;;;;31.10;68.31;100772.66;5067814;27;66133;-36
2021/05/27 05:25:08;;;;;;;8.40;7.88;;;;;;;31.09;68.24;100765.59;5075587;27;69882;-37
2021/05/27 05:27:40;;;;;;;7.95;7.43;;;;;;;31.05;67.69;100758.94;5069730;27;65130;-38
2021/05/27 05:30:20;;;;;;;8.43;7.90;;;;;;;31.06;67.75;100757.88;5067970;28;70023;-37
2021/05/27 05:32:51;;;;;;;8.30;7.50;;;;;;;31.00;68.10;100753.38;5072366;28;66163;-37
2021/05/27 05:35:24;;;;;;;7.20;6.70;;;;;;;31.04;68.38;100757.31;5067204;27;69828;-37
2021/05/27 05:37:55;;;;;;;7.25;6.68;;;;;;;31.02;68.41;100759.41;5069805;28;65360;-37
2021/05/27 05:40:28;;;;;;;6.80;6.33;;;;;;;31.02;68.25;100764.81;5072179;28;69285;-37
2021/05/27 05:43:00;;;;;;;7.45;6.75;;;;;;;31.00;68.23;100757.97;5075675;27;66009;-37
2021/05/27 05:45:32;;;;;;;7.30;6.68;;;;;;;30.97;67.90;100755.72;5075169;27;70131;-37
2021/05/27 05:48:07;;;;;;;6.65;6.25;;;;;;;30.96;68.42;100754.06;5071808;28;68407;-38
2021/05/27 05:50:45;;;;;;;7.20;6.50;;;;;;;30.96;67.93;100759.47;5072653;27;69301;-37
2021/05/27 05:53:38;;;;;;;6.68;6.30;;;;;;;30.93;68.28;100760.75;5069219;28;65261;-37
2021/05/27 05:56:12;;;;;;;7.07;6.57;;;;;;;30.93;68.58;100763.47;5068731;27;70529;-36
2021/05/27 05:58:48;;;;;;;6.32;5.93;;;;;;;30.93;68.66;100766.16;5069638;28;66110;-39
2021/05/27 06:01:22;;;;;;;6.50;5.90;;;;;;;30.92;68.04;100767.19;5066723;28;70026;-36
2021/05/27 06:03:57;;;;;;;6.18;5.88;;;;;;;30.90;68.13;100755.78;5061134;28;66055;-37
2021/05/27 06:06:55;;;;;;;6.28;5.75;;;;;;;30.82;68.12;100753.38;5069549;27;70126;-37
2021/05/27 06:09:31;;;;;;;6.15;5.75;;;;;;;30.85;68.50;100736.66;5064833;27;65876;-37
2021/05/27 06:12:04;;;;;;;6.03;5.63;;;;;;;30.87;68.52;100735.41;5067662;27;69247;-37
2021/05/27 06:14:39;;;;;;;5.50;5.10;;;;;;;30.84;68.76;100735.84;5070410;27;65158;-40
2021/05/27 06:17:13;;;;;;;5.63;5.22;;;;;;;30.78;68.57;100708.78;5069223;27;69886;-37
2021/05/27 06:19:45;;;;;;;5.80;4.88;;;;;;;30.73;68.39;100706.75;5065831;28;66461;-36
2021/05/27 06:22:29;;;;;;;5.50;5.10;;;;;;;30.80;68.68;100722.97;5065500;28;70249;-37
2021/05/27 06:25:02;;;;;;;5.93;5.53;;;;;;;30.79;68.59;100721.28;5062195;28;65517;-36
2021/05/27 06:27:37;;;;;;;5.55;5.03;;;;;;;30.78;68.57;100714.19;5062990;28;69849;-36
2021/05/27 06:30:10;;;;;;;5.60;5.07;;;;;;;30.49;68.37;100662.41;5061015;28;65084;-36
2021/05/27 06:32:45;;;;;;;4.95;4.55;;;;;;;30.76;68.52;100705.44;5072476;28;69738;-37
2021/05/27 06:35:16;;;;;;;5.68;5.38;;;;;;;30.76;68.84;100700.03;5063538;27;66225;-36
2021/05/27 06:37:48;;;;;;;;;;;;;;;30.45;69.87;100686.41;5070660;28;70196;-37
2021/05/27 06:40:22;;;;;;;4.90;4.53;;;;;;;30.72;68.88;100694.25;5063097;27;65995;-36
2021/05/27 06:42:53;;;;;;;5.45;4.93;;;;;;;30.70;68.96;100683.66;5066688;28;69108;-36
2021/05/27 06:45:26;;;;;;;5.07;4.68;;;;;;;30.71;68.79;100671.78;5068041;28;65283;-36
2021/05/27 06:48:06;;;;;;;7.53;5.25;;;;;;;30.66;68.79;100663.50;5063954;27;70718;-37
2021/05/27 06:50:40;;;;;;;5.32;4.88;;;;;;;30.70;69.13;100669.28;5074818;27;66659;-36
2021/05/27 06:53:15;;;;;;;4.85;4.55;;;;;;;30.63;68.99;100663.94;5086378;27;69808;-37
2021/05/27 06:55:47;;;;;;;4.90;4.60;;;;;;;30.69;69.26;100667.63;5070916;27;65368;-40
2021/05/27 06:58:21;;;;;;;5.35;4.82;;;;;;;30.61;68.90;100660.63;5068834;27;69997;-36
2021/05/27 07:00:54;;;;;;;5.25;4.75;;;;;;;30.67;68.88;100670.56;5059932;28;66886;-36
2021/05/27 07:03:25;;;;;;;4.85;4.55;;;;;;;30.64;69.18;100671.00;5065891;27;69000;-38
2021/05/27 07:05:59;;;;;;;5.68;5.25;;;;;;;30.64;69.17;100676.41;5067717;28;66259;-37
2021/05/27 07:08:33;;;;;;;5.50;4.78;;;;;;;30.66;68.84;100658.06;5061505;28;69442;-37
2021/05/27 07:11:03;;;;;;;4.53;4.13;;;;;;;30.64;69.49;100665.59;5067240;27;66394;-38
2021/05/27 07:13:49;;;;;;;5.40;4.90;;;;;;;30.65;68.84;100661.84;5068938;28;69030;-37
2021/05/27 07:16:22;;;;;;;5.45;5.05;;;;;;;30.65;69.56;100661.03;5070975;27;65898;-38
2021/05/27 07:18:56;;;;;;;5.03;4.60;;;;;;;30.57;69.40;100637.78;5057423;28;69527;-37
2021/05/27 07:21:32;;;;;;;5.20;4.70;;;;;;;30.63;69.14;100647.69;5064442;28;65312;-36
2021/05/27 07:24:05;;;;;;;5.20;4.90;;;;;;;30.63;69.58;100647.69;5070715;27;69314;-37
2021/05/27 07:26:40;;;;;;;5.40;5.10;;;;;;;30.47;69.55;100618.50;5064392;28;66047;-37
2021/05/27 07:29:13;;;;;;;5.15;4.85;;;;;;;30.59;69.20;100635.66;5068376;28;70562;-36
2021/05/27 07:31:46;;;;;;;5.05;4.65;;;;;;;30.63;69.02;100644.97;5059783;28;66096;-37
2021/05/27 07:34:18;;;;;;;5.40;5.00;;;;;;;30.53;69.52;100614.88;5072615;28;69717;-37
2021/05/27 07:36:50;;;;;;;5.82;5.38;;;;;;;30.63;69.18;100625.22;5061235;28;65792;-36
2021/05/27 07:39:44;;;;;;;5.45;5.05;;;;;;;30.61;69.49;100611.88;5072787;27;70221;-37
2021/05/27 07:42:16;;;;;;;6.33;5.60;;;;;;;30.61;69.02;100622.72;5064613;28;66764;-36
2021/05/27 07:44:51;;;;;;;5.45;5.05;;;;;;;30.61;69.22;100617.31;5061277;28;70690;-37
2021/05/27 07:47:28;;;;;;;6.20;5.78;;;;;;;30.59;69.30;100614.00;5070368;28;65049;-37
2021/05/27 07:50:06;;;;;;;4.95;4.65;;;;;;;30.35;69.71;100574.28;5064898;28;70088;-37
2021/05/27 07:52:42;;;;;;;7.60;5.40;;;;;;;30.60;69.52;100604.84;5074373;27;66410;-37
2021/05/27 07:55:15;;;;;;;5.63;5.22;;;;;;;30.60;69.45;100609.41;5065601;28;70079;-36
2021/05/27 07:57:48;;;;;;;6.53;5.93;;;;;;;30.62;69.53;100607.28;5030226;28;66450;-38
2021/05/27 08:00:24;;;;;;;7.18;6.60;;;;;;;30.61;69.29;100595.66;5061008;27;70351;-37
2021/05/27 08:02:55;;;;;;;;;;;;;;;30.32;70.33;100590.97;5069154;27;67005;-37
2021/05/27 08:05:27;;;;;;;5.47;5.13;;;;;;;30.59;69.39;100594.22;5063390;27;68890;-37
2021/05/27 08:08:00;;;;;;;7.70;7.03;;;;;;;30.59;69.49;100586.09;5073847;27;66412;-37
2021/05/27 08:10:37;;;;;;;7.30;6.80;;;;;;;30.60;68.97;100577.75;5066255;27;69230;-37
2021/05/27 08:13:07;;;;;;;8.38;7.10;;;;;;;30.55;69.46;100577.59;5065071;27;66158;-36
2021/05/27 08:15:42;;;;;;;7.40;6.80;;;;;;;30.63;69.14;100576.47;5062086;27;69805;-37
2021/05/27 08:18:14;;;;;;;7.38;6.18;;;;;;;30.59;69.60;100569.84;5065924;28;66749;-35
2021/05/27 08:20:45;;;;;;;6.97;6.27;;;;;;;30.63;69.32;100576.47;5068152;27;69236;-37
2021/05/27 08:23:17;;;;;;;7.13;6.53;;;;;;;30.62;69.96;100583.78;5066652;28;66812;-37
2021/05/27 08:25:52;;;;;;;6.85;6.30;;;;;;;30.62;69.29;100581.06;5069731;27;69921;-37
2021/05/27 08:28:25;;;;;;;6.80;6.20;;;;;;;30.64;69.87;100578.94;5066690;27;65162;-37
2021/05/27 08:30:57;;;;;;;6.93;6.10;;;;;;;30.63;69.57;100588.13;5072468;27;70005;-37
2021/05/27 08:33:31;;;;;;;6.95;6.45;;;;;;;30.66;69.22;100603.94;5064361;28;66253;-36
2021/05/27 08:36:02;;;;;;;;;;;;;;;30.39;69.95;100599.84;5072790;27;70935;-36
2021/05/27 08:38:33;;;;;;;5.88;5.47;;;;;;;30.64;69.44;100597.91;5073041;28;66615;-36
2021/05/27 08:41:11;;;;;;;7.45;6.72;;;;;;;30.66;69.06;100595.81;5068149;28;69461;-37
2021/05/27 08:43:48;;;;;;;6.22;5.78;;;;;;;30.39;69.23;100551.13;5067839;27;65966;-38
2021/05/27 08:46:22;;;;;;;6.88;6.40;;;;;;;30.58;69.56;100590.69;5074846;27;69900;-36
2021/05/27 08:48:53;;;;;;;5.97;5.57;;;;;;;30.70;68.84;100604.28;5072930;28;65554;-36
2021/05/27 08:51:33;;;;;;;6.45;6.00;;;;;;;30.39;69.54;100553.84;5071650;27;69988;-36
2021/05/27 08:54:06;;;;;;;7.15;6.50;;;;;;;30.71;69.44;100601.38;5068999;27;66177;-36
2021/05/27 08:56:38;;;;;;;6.70;6.20;;;;;;;30.64;68.84;100583.53;5070066;27;69979;-36
2021/05/27 08:59:11;;;;;;;6.13;5.72;;;;;;;30.71;69.66;100587.84;5069668;27;65867;-36
2021/05/27 09:02:04;;;;;;;6.30;5.80;;;;;;;30.65;68.93;100590.63;5064306;27;70142;-36
2021/05/27 09:04:41;;;;;;;6.43;5.88;;;;;;;30.66;69.53;100571.44;5068058;28;66334;-36
2021/05/27 09:07:15;;;;;;;6.40;5.90;;;;;;;30.73;68.87;100583.03;5068186;28;69145;-36
2021/05/27 09:09:54;;;;;;;6.40;5.90;;;;;;;30.72;69.04;100591.38;5071650;27;65151;-35
2021/05/27 09:12:32;;;;;;;6.50;5.88;;;;;;;30.76;68.65;100589.03;5075093;28;70198;-35
2021/05/27 09:15:17;;;;;;;7.10;6.60;;;;;;;30.71;69.00;100590.53;5073676;27;65255;-36
2021/05/27 09:17:52;;;;;;;6.20;5.80;;;;;;;30.60;68.85;100561.50;5068427;28;70182;-37
2021/05/27 09:20:28;;;;;;;6.47;6.07;;;;;;;30.54;68.31;100551.59;5072483;28;65926;-37
2021/05/27 09:23:17;;;;;;;6.57;6.07;;;;;;;30.41;68.93;100547.16;5063257;28;70416;-37
2021/05/27 09:26:07;;;;;;;7.47;6.80;;;;;;;30.15;68.88;100499.53;5071386;27;65343;-35
2021/05/27 09:28:45;;;;;;;5.20;4.75;;;;;;;30.78;69.09;100589.63;5075177;27;69552;-36
2021/05/27 09:31:24;;;;;;;5.43;5.13;;;;;;;30.79;68.65;100596.72;5073222;27;65887;-37
2021/05/27 09:34:04;;;;;;;6.70;5.95;;;;;;;30.79;69.15;100607.56;5073586;27;69665;-36
2021/05/27 09:36:35;;;;;;;5.80;5.40;;;;;;;30.80;68.40;100609.22;5086527;27;65635;-37
2021/05/27 09:39:07;;;;;;;6.38;5.82;;;;;;;30.80;68.84;100603.81;5071966;27;69617;-36
2021/05/27 09:41:41;;;;;;;6.07;5.68;;;;;;;30.82;68.73;100597.13;5071110;28;66564;-36
2021/05/27 09:44:12;;;;;;;6.80;5.43;;;;;;;30.82;68.94;100590.88;5072417;27;69173;-37
2021/05/27 09:46:55;;;;;;;6.15;5.75;;;;;;;30.24;68.64;100492.81;5066499;28;65589;-36
2021/05/27 09:49:28;;;;;;;5.65;5.32;;;;;;;30.73;69.00;100572.19;5073045;28;70156;-37
2021/05/27 09:52:16;;;;;;;7.15;5.75;;;;;;;30.45;68.60;100539.41;5071777;28;66291;-36
2021/05/27 09:54:56;;;;;;;6.50;6.03;;;;;;;30.66;68.57;100568.72;5072239;28;70796;-37
2021/05/27 09:57:28;;;;;;;6.00;5.60;;;;;;;30.80;68.95;100585.69;5070961;28;66074;-37
2021/05/27 09:59:58;;;;;;;;;;;;;;;30.54;69.26;100594.91;5066715;28;70120;-37
2021/05/27 10:02:29;;;;;;;6.15;5.65;;;;;;;30.70;68.94;100588.91;5067747;27;66228;-37
2021/05/27 10:05:00;;;;;;;5.80;5.40;;;;;;;30.81;68.45;100605.44;5066132;28;70364;-37
2021/05/27 10:07:49;;;;;;;6.30;5.80;;;;;;;30.79;68.70;100604.84;5065305;28;66072;-36
2021/05/27 10:10:43;;;;;;;6.15;5.45;;;;;;;30.84;68.69;100608.56;5066269;28;69951;-36
2021/05/27 10:13:17;;;;;;;6.10;5.70;;;;;;;30.86;69.07;100619.16;5060520;28;65445;-37
2021/05/27 10:15:48;;;;;;;6.68;6.25;;;;;;;30.85;68.48;100618.31;5061657;28;69962;-37
2021/05/27 10:18:22;;;;;;;7.68;5.82;;;;;;;30.59;68.56;100569.84;5075220;27;66071;-35
2021/05/27 10:20:53;;;;;;;6.50;5.90;;;;;;;30.86;68.89;100624.56;5059930;27;70839;-37
2021/05/27 10:23:24;;;;;;;6.82;6.40;;;;;;;30.61;68.53;100584.81;5060949;28;65869;-37
2021/05/27 10:25:58;;;;;;;6.28;5.88;;;;;;;30.78;68.70;100608.59;5062927;28;69158;-37
2021/05/27 10:28:30;;;;;;;6.10;5.60;;;;;;;30.86;68.84;100625.38;5072769;28;65182;-37
2021/05/27 10:31:02;;;;;;;6.53;5.93;;;;;;;30.88;68.89;100622.47;5068727;28;69576;-36
2021/05/27 10:33:41;;;;;;;7.03;6.53;;;;;;;30.85;68.75;100623.75;5067509;27;65826;-36
2021/05/27 10:36:13;;;;;;;7.25;6.43;;;;;;;30.87;68.50;100626.22;5068903;27;70213;-37
2021/05/27 10:38:51;;;;;;;6.38;5.88;;;;;;;30.88;68.28;100633.28;5075294;27;66696;-37
2021/05/27 10:41:43;;;;;;;6.82;6.18;;;;;;;30.30;68.45;100538.97;5056169;28;69184;-37
2021/05/27 10:44:15;;;;;;;6.90;6.20;;;;;;;30.86;68.77;100629.97;5070590;28;66681;-36
2021/05/27 10:46:49;;;;;;;7.55;6.97;;;;;;;30.87;68.42;100637.03;5064982;28;69821;-36
2021/05/27 10:49:42;;;;;;;9.10;8.40;;;;;;;30.80;68.28;100641.72;5062072;27;65851;-36
2021/05/27 10:52:30;;;;;;;9.73;8.80;;;;;;;30.82;68.16;100645.84;5064061;28;70194;-37
2021/05/27 10:55:03;;;;;;;9.90;9.10;;;;;;;30.86;68.47;100651.66;5064751;28;66095;-37
2021/05/27 10:57:40;;;;;;;8.70;7.97;;;;;;;30.86;68.39;100665.19;5073879;27;69951;-36
2021/05/27 11:00:20;;;;;;;10.15;7.32;;;;;;;30.83;68.59;100668.34;5073850;27;66309;-37
2021/05/27 11:02:54;;;;;;;8.27;7.68;;;;;;;30.83;69.11;100660.22;5072994;28;69797;-37
2021/05/27 11:05:24;;;;;;;10.27;9.00;;;;;;;30.80;69.35;100674.22;5069629;28;66142;-38
2021/05/27 11:08:17;;;;;;;10.05;9.13;;;;;;;30.66;70.30;100674.31;5065931;27;69550;-37
2021/05/27 11:10:53;;;;;;;15.68;10.10;;;;;;;30.54;70.07;100668.00;5069586;27;66478;-38
2021/05/27 11:13:25;;;;;;;10.60;9.43;;;;;;;30.64;69.88;100689.13;5066756;28;69962;-35
2021/05/27 11:16:04;;;;;;;13.27;10.25;;;;;;;30.22;69.94;100635.59;5075410;27;66145;-36
2021/05/27 11:18:37;;;;;;;13.13;10.30;;;;;;;30.55;70.61;100694.00;5075814;28;70115;-35
2021/05/27 11:21:43;;;;;;;12.80;10.45;;;;;;;30.46;70.75;100701.59;5066133;28;66174;-37
2021/05/27 11:27:27;;;;;;;16.30;11.90;;;;;;;30.38;70.87;100715.38;5063951;28;66585;-35
2021/05/27 11:30:21;;;;;;;15.88;11.80;;;;;;;30.36;70.91;100712.06;5053942;27;70155;-37
2021/05/27 11:33:08;;;;;;;12.93;11.65;;;;;;;30.41;70.90;100714.94;5058253;28;66217;-37
2021/05/27 11:35:45;;;;;;;17.73;12.00;;;;;;;30.41;70.99;100725.78;5073004;28;70119;-36
2021/05/27 11:38:24;;;;;;;13.05;11.73;;;;;;;30.08;71.25;100669.19;5073965;27;65844;-35
2021/05/27 11:41:00;;;;;;;21.40;12.70;;;;;;;30.38;70.95;100715.38;5068710;27;69867;-35
2021/05/27 11:43:43;;;;;;;13.10;11.90;;;;;;;30.03;71.18;100658.19;5073721;28;65974;-36
2021/05/27 11:46:25;;;;;;;15.63;12.10;;;;;;;30.33;71.03;100715.22;5067028;28;70195;-37
2021/05/27 11:49:01;;;;;;;14.82;12.00;;;;;;;30.39;71.64;100721.63;5068733;28;64358;-40
2021/05/27 11:51:38;;;;;;;19.00;11.98;;;;;;;30.42;71.43;100732.00;5067628;28;70485;-36
2021/05/27 11:54:11;;;;;;;28.23;12.15;;;;;;;30.40;71.75;100723.31;5052258;28;65616;-37
2021/05/27 11:56:46;;;;;;;12.30;11.05;;;;;;;30.08;71.81;100671.88;5064483;27;69875;-35
2021/05/27 11:59:27;;;;;;;36.85;11.57;;;;;;;29.79;71.84;100624.69;5066855;28;65621;-37
2021/05/27 12:02:03;;;;;;;21.60;12.23;;;;;;;30.38;71.96;100726.22;5074717;28;69194;-38
2021/05/27 12:04:42;;;;;;;27.02;12.50;;;;;;;30.39;71.76;100743.28;5062054;28;66637;-36
2021/05/27 12:07:19;;;;;;;17.20;11.65;;;;;;;30.36;71.96;100738.31;5074526;28;69783;-37
2021/05/27 12:09:52;;;;;;;16.42;11.90;;;;;;;30.39;72.35;100748.69;5071143;28;66963;-35